Time;durP1;ratioP1;P1;durP2;ratioP2;P2;SDS_P1;SDS_P2;PMS_P1;PMS_P2;Temp;Humidity;BMP_temperature;BMP_pressure;BME280_temperature;BME280_humidity;BME280_pressure;Samples;Min_cycle;Max_cycle;Signal;HPM_P1;HPM_P2
2023/08/12 00:02:22;;;;;;;3.00;0.52;;;;;;;19.39;100.00;100785.53;5015377;28;20472;-52
2023/08/12 00:04:47;;;;;;;3.85;1.05;;;;;;;19.36;100.00;100786.00;5016060;28;20136;-53
2023/08/12 00:07:13;;;;;;;2.25;0.68;;;;;;;19.33;100.00;100786.47;5012919;28;20144;-54
2023/08/12 00:09:38;;;;;;;2.50;0.40;;;;;;;19.33;100.00;100786.47;5014572;28;20029;-50
2023/08/12 00:12:04;;;;;;;9.50;1.40;;;;;;;19.36;100.00;100785.19;5016525;28;20025;-51
2023/08/12 00:14:29;;;;;;;4.53;1.08;;;;;;;19.33;100.00;100781.09;5017983;28;20120;-49
2023/08/12 00:16:55;;;;;;;1.65;1.55;;;;;;;19.30;100.00;100770.03;5016682;28;20021;-53
2023/08/12 00:19:20;;;;;;;2.20;1.20;;;;;;;19.24;100.00;100774.50;5011994;28;20037;-51
2023/08/12 00:21:45;;;;;;;3.97;0.63;;;;;;;19.23;100.00;100775.53;5012500;28;20460;-51
2023/08/12 00:24:11;;;;;;;1.58;0.28;;;;;;;19.21;100.00;100784.94;5007079;28;20878;-52
2023/08/12 00:26:36;;;;;;;6.10;0.30;;;;;;;19.21;100.00;100769.59;5015282;28;20076;-48
2023/08/12 00:29:02;;;;;;;3.35;0.77;;;;;;;19.06;100.00;100780.06;5020390;28;20047;-52
2023/08/12 00:31:27;;;;;;;3.88;0.77;;;;;;;19.12;100.00;100773.72;5020292;28;20490;-54
2023/08/12 00:33:53;;;;;;;2.03;0.73;;;;;;;19.11;100.00;100772.91;5017665;28;20068;-54
2023/08/12 00:36:18;;;;;;;5.05;1.35;;;;;;;19.06;100.00;100770.13;5014692;28;20119;-53
2023/08/12 00:38:43;;;;;;;1.80;0.73;;;;;;;18.98;100.00;100773.22;5026972;28;20132;-52
2023/08/12 00:41:09;;;;;;;4.45;0.98;;;;;;;18.89;100.00;100767.38;5022380;28;20037;-52
2023/08/12 00:43:34;;;;;;;1.90;0.77;;;;;;;18.81;100.00;100775.81;5016741;28;20106;-49
2023/08/12 00:46:00;;;;;;;5.75;1.15;;;;;;;18.74;100.00;100767.03;5016280;28;20041;-55
2023/08/12 00:48:25;;;;;;;2.08;0.60;;;;;;;18.74;100.00;100764.34;5011897;28;20037;-55
2023/08/12 00:50:52;;;;;;;2.40;0.70;;;;;;;18.78;100.00;100767.44;5017043;28;20600;-50
2023/08/12 00:53:17;;;;;;;3.58;0.40;;;;;;;18.72;100.00;100763.81;5019266;28;20386;-53
2023/08/12 00:55:43;;;;;;;2.25;0.30;;;;;;;18.73;100.00;100760.06;5012753;28;20026;-54
2023/08/12 00:58:08;;;;;;;3.33;0.95;;;;;;;18.68;100.00;100765.31;5024956;28;20033;-49
2023/08/12 01:00:34;;;;;;;7.40;1.33;;;;;;;18.55;100.00;100762.91;5020157;28;20033;-50
2023/08/12 01:03:00;;;;;;;5.82;0.98;;;;;;;18.42;100.00;100764.78;5019332;28;20053;-52
2023/08/12 01:05:26;;;;;;;4.45;0.68;;;;;;;18.40;100.00;100766.88;5015719;28;21903;-48
2023/08/12 01:07:53;;;;;;;1.15;0.35;;;;;;;18.44;100.00;100762.69;5021478;28;20041;-52
2023/08/12 01:10:20;;;;;;;3.08;0.50;;;;;;;18.44;100.00;100762.69;5009402;28;20061;-53
2023/08/12 01:13:06;;;;;;;7.20;1.83;;;;;;;18.42;100.00;100764.78;5019580;28;20144;-53
2023/08/12 01:15:33;;;;;;;1.17;0.40;;;;;;;18.38;100.00;100760.13;5012493;28;20287;-50
2023/08/12 01:18:00;;;;;;;3.05;1.13;;;;;;;18.35;100.00;100772.16;5019178;28;20029;-54
2023/08/12 01:20:26;;;;;;;3.22;0.70;;;;;;;18.36;100.00;100756.88;5021543;28;20056;-54
2023/08/12 01:22:58;;;;;;;8.07;1.25;;;;;;;18.31;100.00;100760.25;5018558;28;20080;-52
2023/08/12 01:25:26;;;;;;;2.70;0.35;;;;;;;18.21;100.00;100762.72;5013569;28;20042;-49
2023/08/12 01:27:51;;;;;;;2.35;0.60;;;;;;;18.28;100.00;100763.44;5016535;28;20394;-52
2023/08/12 01:30:20;;;;;;;1.67;0.30;;;;;;;18.26;100.00;100769.00;5020470;28;20033;-47
2023/08/12 01:33:04;;;;;;;4.57;0.88;;;;;;;18.35;100.00;100769.47;5012948;28;20053;-52
2023/08/12 01:35:35;;;;;;;4.03;0.60;;;;;;;18.30;100.00;100772.88;5009205;28;20538;-53
2023/08/12 01:38:03;;;;;;;1.95;1.38;;;;;;;18.31;100.00;100773.69;5021638;28;20087;-52
2023/08/12 01:40:31;;;;;;;3.80;0.63;;;;;;;18.35;100.00;100774.84;5013183;28;20041;-55
2023/08/12 01:42:56;;;;;;;1.17;0.65;;;;;;;18.32;100.00;100767.25;5017354;28;20034;-53
2023/08/12 01:45:22;;;;;;;5.28;0.75;;;;;;;18.31;100.00;100762.94;5017031;28;20036;-47
2023/08/12 01:47:50;;;;;;;1.88;0.98;;;;;;;18.29;100.00;100765.03;5029948;28;20072;-53
2023/08/12 01:50:16;;;;;;;3.80;0.52;;;;;;;18.24;100.00;100768.44;5021315;28;20061;-48
2023/08/12 01:52:41;;;;;;;7.05;1.90;;;;;;;18.21;100.00;100770.78;5025768;28;20087;-53
2023/08/12 01:55:07;;;;;;;3.38;1.40;;;;;;;18.19;100.00;100757.56;5012938;28;20420;-55
2023/08/12 01:57:32;;;;;;;3.95;0.90;;;;;;;18.21;100.00;100766.22;5017445;28;20047;-54
2023/08/12 01:59:58;;;;;;;3.25;0.68;;;;;;;18.24;100.00;100757.69;5014949;28;20041;-52
2023/08/12 02:02:23;;;;;;;4.05;0.57;;;;;;;18.26;100.00;100773.56;5020658;28;20492;-54
2023/08/12 02:04:48;;;;;;;6.15;0.65;;;;;;;18.28;100.00;100769.59;5015768;28;20043;-52
2023/08/12 02:07:14;;;;;;;2.22;1.00;;;;;;;18.36;100.00;100779.16;5025272;28;20068;-50
2023/08/12 02:09:39;;;;;;;1.67;0.47;;;;;;;18.40;100.00;100761.53;5023998;28;20028;-50
2023/08/12 02:12:05;;;;;;;4.88;0.88;;;;;;;18.36;100.00;100765.75;5012709;28;20033;-54
2023/08/12 02:14:30;;;;;;;8.05;0.95;;;;;;;18.32;100.00;100759.19;5020040;28;20075;-50
2023/08/12 02:16:55;;;;;;;5.65;0.70;;;;;;;18.29;100.00;100760.50;5017341;28;20029;-56
2023/08/12 02:19:21;;;;;;;5.00;0.85;;;;;;;18.28;100.00;100760.75;5024929;28;20112;-55
2023/08/12 02:21:46;;;;;;;3.58;0.75;;;;;;;18.42;100.00;100753.25;5021786;28;20044;-53
2023/08/12 02:24:11;;;;;;;2.88;1.58;;;;;;;18.35;100.00;100763.28;5016567;28;20049;-51
2023/08/12 02:26:37;;;;;;;4.72;0.43;;;;;;;18.46;100.00;100754.41;5019308;28;20049;-53
2023/08/12 02:29:03;;;;;;;1.85;0.32;;;;;;;18.52;100.00;100750.78;5023274;28;20041;-52
2023/08/12 02:31:28;;;;;;;3.95;0.70;;;;;;;18.44;100.00;100746.59;5014272;28;20038;-54
2023/08/12 02:33:53;;;;;;;3.90;1.25;;;;;;;18.42;100.00;100742.50;5020326;28;20061;-50
2023/08/12 02:36:19;;;;;;;5.15;0.60;;;;;;;18.30;100.00;100745.19;5016183;28;20088;-52
2023/08/12 02:38:44;;;;;;;5.80;2.45;;;;;;;18.38;100.00;100752.91;5026387;28;20421;-60
2023/08/12 02:41:09;;;;;;;6.18;2.40;;;;;;;18.35;100.00;100748.00;5015033;28;20467;-48
2023/08/12 02:43:35;;;;;;;8.23;1.67;;;;;;;18.34;100.00;100743.69;5019554;28;20037;-51
2023/08/12 02:46:00;;;;;;;5.03;0.60;;;;;;;18.41;100.00;100744.38;5020336;28;20061;-47
2023/08/12 02:48:25;;;;;;;2.72;1.00;;;;;;;18.41;100.00;100748.94;5017182;28;20049;-54
2023/08/12 02:50:51;;;;;;;3.88;0.98;;;;;;;18.34;100.00;100746.38;5009868;28;20553;-49
2023/08/12 02:53:17;;;;;;;3.25;1.00;;;;;;;18.49;100.00;100749.38;5023248;28;20063;-54
2023/08/12 02:55:44;;;;;;;4.05;1.25;;;;;;;18.51;100.00;100741.09;5019404;28;20064;-55
2023/08/12 02:58:09;;;;;;;4.97;1.50;;;;;;;18.53;100.00;100736.28;5019415;28;20036;-52
2023/08/12 03:00:34;;;;;;;6.28;1.42;;;;;;;18.53;100.00;100738.97;5013632;28;20379;-51
2023/08/12 03:03:00;;;;;;;5.13;0.50;;;;;;;18.47;100.00;100735.38;5016915;28;20100;-53
2023/08/12 03:05:25;;;;;;;7.32;1.10;;;;;;;18.47;100.00;100731.88;5013600;28;20455;-51
2023/08/12 03:07:52;;;;;;;11.93;3.30;;;;;;;18.42;100.00;100739.81;5016445;28;20036;-47
2023/08/12 03:10:17;;;;;;;9.93;3.15;;;;;;;18.45;100.00;100732.09;5019514;28;20036;-51
2023/08/12 03:12:42;;;;;;;3.33;0.57;;;;;;;18.49;100.00;100727.91;5024145;28;20437;-48
2023/08/12 03:15:08;;;;;;;8.05;1.88;;;;;;;18.51;100.00;100727.66;5015868;28;20037;-51
2023/08/12 03:17:34;;;;;;;5.25;0.73;;;;;;;18.40;100.00;100731.19;5016776;28;20025;-53
2023/08/12 03:19:59;;;;;;;9.43;1.85;;;;;;;18.49;100.00;100727.09;5019392;28;20555;-51
2023/08/12 03:22:27;;;;;;;6.97;1.08;;;;;;;18.47;100.00;100735.38;5017069;28;20133;-53
2023/08/12 03:24:52;;;;;;;12.00;2.55;;;;;;;18.47;100.00;100724.63;5019512;28;20029;-48
2023/08/12 03:27:17;;;;;;;5.88;1.38;;;;;;;18.47;100.00;100719.25;5026186;28;20026;-49
2023/08/12 03:29:42;;;;;;;13.30;1.52;;;;;;;18.39;100.00;100714.25;5015465;28;20061;-47
2023/08/12 03:32:08;;;;;;;6.75;1.30;;;;;;;18.45;100.00;100709.81;5022389;28;20152;-52
2023/08/12 03:34:33;;;;;;;11.23;1.00;;;;;;;18.43;100.00;100701.16;5020811;28;20507;-54
2023/08/12 03:36:58;;;;;;;6.53;1.27;;;;;;;18.33;100.00;100701.81;5024668;28;20034;-53
2023/08/12 03:39:24;;;;;;;4.53;1.08;;;;;;;18.28;100.00;100696.31;5020666;28;20037;-50
2023/08/12 03:41:50;;;;;;;11.20;1.27;;;;;;;18.15;100.00;100693.88;5015342;28;20509;-49
2023/08/12 03:44:15;;;;;;;8.07;1.92;;;;;;;18.15;100.00;100699.25;5012666;28;20107;-51
2023/08/12 03:46:41;;;;;;;15.40;1.75;;;;;;;18.18;100.00;100699.59;5021734;28;20021;-53
2023/08/12 03:49:06;;;;;;;4.35;1.27;;;;;;;18.21;100.00;100698.31;5019646;28;20541;-54
2023/08/12 03:51:31;;;;;;;6.20;1.75;;;;;;;18.22;100.00;100695.38;5016668;28;20349;-52
2023/08/12 03:53:57;;;;;;;2.67;0.50;;;;;;;18.17;100.00;100691.78;5020648;28;20604;-53
2023/08/12 03:56:23;;;;;;;10.45;1.40;;;;;;;18.13;100.00;100694.13;5017622;28;20099;-54
2023/08/12 03:58:48;;;;;;;5.60;1.40;;;;;;;18.12;100.00;100688.97;5024636;28;20041;-51
2023/08/12 04:01:13;;;;;;;2.42;1.13;;;;;;;18.14;100.00;100681.53;5019310;28;20510;-52
2023/08/12 04:03:39;;;;;;;4.00;1.33;;;;;;;18.21;100.00;100682.22;5019806;28;20562;-55
2023/08/12 04:06:04;;;;;;;6.22;1.55;;;;;;;18.26;100.00;100685.00;5018456;28;21912;-51
2023/08/12 04:08:30;;;;;;;3.42;0.85;;;;;;;18.28;100.00;100678.34;5019534;28;20056;-54
2023/08/12 04:10:55;;;;;;;3.78;0.90;;;;;;;18.30;100.00;100689.66;5018308;28;20064;-55
2023/08/12 04:13:20;;;;;;;5.72;1.25;;;;;;;18.37;100.00;100683.34;5023467;28;20112;-54
2023/08/12 04:15:50;;;;;;;6.95;0.70;;;;;;;18.48;100.00;100682.47;5018428;28;20445;-54
2023/08/12 04:18:16;;;;;;;7.15;1.35;;;;;;;18.50;100.00;100675.00;5027472;28;20485;-53
2023/08/12 04:20:42;;;;;;;8.35;1.42;;;;;;;18.50;100.00;100678.50;5020908;28;20033;-53
2023/08/12 04:23:07;;;;;;;10.75;1.67;;;;;;;18.45;100.00;100682.97;5014296;28;20057;-51
2023/08/12 04:25:32;;;;;;;5.10;2.58;;;;;;;18.46;100.00;100681.94;5014532;28;20072;-53
2023/08/12 04:27:58;;;;;;;4.65;1.70;;;;;;;18.52;100.00;100680.97;5024617;28;20055;-53
2023/08/12 04:30:23;;;;;;;5.38;0.60;;;;;;;18.57;100.00;100669.50;5012608;28;20052;-51
2023/08/12 04:32:48;;;;;;;5.65;1.67;;;;;;;18.64;100.00;100665.63;5020703;28;20033;-54
2023/08/12 04:35:14;;;;;;;5.40;1.48;;;;;;;18.53;100.00;100661.09;5020760;28;20033;-51
2023/08/12 04:37:39;;;;;;;7.07;1.27;;;;;;;18.47;100.00;100654.81;5021239;28;20139;-53
2023/08/12 04:40:05;;;;;;;8.90;1.52;;;;;;;18.41;100.00;100650.44;5015065;28;20112;-51
2023/08/12 04:42:30;;;;;;;5.97;0.68;;;;;;;18.28;100.00;100658.75;5021379;28;20036;-51
2023/08/12 04:44:55;;;;;;;5.97;0.95;;;;;;;18.14;100.00;100660.88;5017520;28;20034;-53
2023/08/12 04:47:21;;;;;;;3.28;1.30;;;;;;;18.19;100.00;100655.59;5023618;28;20117;-50
2023/08/12 04:49:46;;;;;;;12.23;1.70;;;;;;;18.19;100.00;100652.91;5015146;28;20035;-50
2023/08/12 04:52:12;;;;;;;7.25;1.40;;;;;;;18.15;100.00;100653.63;5017462;28;20026;-54
2023/08/12 04:54:37;;;;;;;4.22;1.02;;;;;;;18.13;100.00;100647.69;5011668;28;20038;-53
2023/08/12 04:57:02;;;;;;;4.63;1.52;;;;;;;18.02;100.00;100646.69;5020727;28;20933;-50
2023/08/12 04:59:28;;;;;;;9.25;0.82;;;;;;;18.00;100.00;100660.31;5013515;28;20025;-51
2023/08/12 05:01:53;;;;;;;6.90;0.83;;;;;;;18.03;100.00;100659.03;5016480;28;20106;-52
2023/08/12 05:04:18;;;;;;;2.60;1.15;;;;;;;17.98;100.00;100657.03;5024309;28;20610;-50
2023/08/12 05:06:43;;;;;;;7.47;1.52;;;;;;;17.94;100.00;100655.91;5019666;28;20104;-54
2023/08/12 05:09:09;;;;;;;3.00;0.60;;;;;;;17.98;100.00;100650.88;5014468;28;20117;-47
2023/08/12 05:11:34;;;;;;;6.22;1.02;;;;;;;18.07;100.00;100662.84;5021799;28;20039;-48
2023/08/12 05:13:59;;;;;;;5.22;1.77;;;;;;;18.14;100.00;100654.69;5021088;28;20387;-53
2023/08/12 05:16:26;;;;;;;14.10;2.10;;;;;;;18.26;100.00;100658.16;5024622;28;20107;-55
2023/08/12 05:18:51;;;;;;;6.57;1.10;;;;;;;18.39;100.00;100662.44;5025148;28;20422;-50
2023/08/12 05:21:17;;;;;;;9.50;1.02;;;;;;;18.43;100.00;100658.22;5022470;28;20042;-52
2023/08/12 05:23:42;;;;;;;6.75;2.38;;;;;;;18.52;100.00;100656.81;5020099;28;20375;-54
2023/08/12 05:26:07;;;;;;;11.43;1.98;;;;;;;18.56;100.00;100646.38;5022037;28;20397;-54
2023/08/12 05:28:33;;;;;;;9.30;1.00;;;;;;;18.51;100.00;100641.75;5016956;28;20034;-53
2023/08/12 05:30:58;;;;;;;5.15;1.27;;;;;;;18.47;100.00;100637.91;5017541;28;20025;-53
2023/08/12 05:33:24;;;;;;;7.82;1.52;;;;;;;18.36;100.00;100642.28;5020256;28;20057;-48
2023/08/12 05:35:49;;;;;;;7.00;1.58;;;;;;;18.23;100.00;100637.19;5025373;28;20467;-47
2023/08/12 05:38:15;;;;;;;8.40;2.20;;;;;;;18.24;100.00;100641.47;5019293;28;20053;-53
2023/08/12 05:40:41;;;;;;;5.30;1.60;;;;;;;18.11;100.00;100645.25;5024783;28;20029;-52
2023/08/12 05:43:06;;;;;;;4.38;1.23;;;;;;;18.19;100.00;100644.88;5018843;28;20031;-54
2023/08/12 05:45:31;;;;;;;4.30;1.60;;;;;;;18.35;100.00;100634.44;5011739;28;20400;-55
2023/08/12 05:47:57;;;;;;;8.10;1.65;;;;;;;18.45;100.00;100637.31;5023078;28;20043;-52
2023/08/12 05:50:22;;;;;;;7.78;1.20;;;;;;;18.54;100.00;100627.84;5014556;28;20394;-52
2023/08/12 05:52:47;;;;;;;7.85;1.23;;;;;;;18.73;100.00;100634.63;5017727;28;20136;-53
2023/08/12 05:55:13;;;;;;;10.63;2.92;;;;;;;18.86;100.00;100643.47;5015896;28;20108;-52
2023/08/12 05:57:38;;;;;;;4.90;1.33;;;;;;;18.98;100.00;100646.13;5020615;28;20034;-52
2023/08/12 06:00:04;;;;;;;7.20;0.93;;;;;;;19.16;100.00;100641.31;5018087;28;20742;-54
2023/08/12 06:02:29;;;;;;;10.45;2.53;;;;;;;19.24;100.00;100632.03;5022168;28;20068;-51
2023/08/12 06:04:55;;;;;;;17.80;3.08;;;;;;;19.26;100.00;100645.22;5011382;28;20412;-53
2023/08/12 06:07:20;;;;;;;4.97;1.38;;;;;;;19.21;100.00;100645.97;5024469;28;20380;-56
2023/08/12 06:09:45;;;;;;;4.90;1.00;;;;;;;19.30;100.00;100641.78;5025248;28;21031;-50
2023/08/12 06:12:10;;;;;;;7.30;2.80;;;;;;;19.44;100.00;100634.22;5019075;28;20120;-54
2023/08/12 06:14:39;;;;;;;7.32;0.90;;;;;;;19.50;100.00;100646.69;5021367;28;20029;-48
2023/08/12 06:17:04;;;;;;;9.18;1.63;;;;;;;19.57;100.00;100631.19;5030665;28;20084;-49
2023/08/12 06:19:30;;;;;;;9.82;1.40;;;;;;;19.55;100.00;100637.88;5027020;28;20029;-53
2023/08/12 06:21:55;;;;;;;8.68;2.58;;;;;;;19.56;100.00;100639.50;5013344;28;20040;-47
2023/08/12 06:24:20;;;;;;;8.95;1.40;;;;;;;19.59;100.00;100637.16;5017242;28;20029;-54
2023/08/12 06:26:46;;;;;;;8.82;1.20;;;;;;;19.80;100.00;100635.59;5014322;28;20029;-53
2023/08/12 06:29:11;;;;;;;8.50;2.58;;;;;;;19.79;100.00;100633.13;5021005;28;20108;-50
2023/08/12 06:31:36;;;;;;;9.13;1.77;;;;;;;19.88;100.00;100634.34;5019512;28;20033;-52
2023/08/12 06:34:02;;;;;;;14.95;3.33;;;;;;;19.85;100.00;100632.13;5016872;28;20088;-52
2023/08/12 06:36:27;;;;;;;10.90;1.92;;;;;;;20.02;100.00;100635.59;5019656;28;20057;-52
2023/08/12 06:38:53;;;;;;;7.28;0.88;;;;;;;20.10;100.00;100633.53;5022790;28;20159;-54
2023/08/12 06:41:18;;;;;;;11.77;2.13;;;;;;;20.16;100.00;100633.34;5014936;28;20124;-53
2023/08/12 06:43:43;;;;;;;14.27;1.42;;;;;;;20.06;100.00;100633.22;5010999;28;20533;-47
2023/08/12 06:46:09;;;;;;;17.75;1.92;;;;;;;20.09;100.00;100637.28;5014830;28;20065;-49
2023/08/12 06:48:34;;;;;;;9.00;1.50;;;;;;;20.21;100.00;100632.56;5018553;28;20068;-54
2023/08/12 06:50:59;;;;;;;7.88;1.95;;;;;;;20.42;100.00;100630.94;5022527;28;20135;-55
2023/08/12 06:53:26;;;;;;;8.98;1.98;;;;;;;20.45;100.00;100625.88;5018263;28;20521;-53
2023/08/12 06:55:51;;;;;;;4.60;1.75;;;;;;;20.55;100.00;100635.97;5020851;28;20029;-49
2023/08/12 06:58:17;;;;;;;8.05;2.08;;;;;;;20.56;100.00;100632.19;5018961;28;20041;-47
2023/08/12 07:00:42;;;;;;;14.00;1.58;;;;;;;20.59;100.00;100631.69;5022707;28;20087;-46
2023/08/12 07:03:08;;;;;;;4.05;1.17;;;;;;;20.66;100.00;100634.19;5014938;28;20685;-54
2023/08/12 07:05:33;;;;;;;13.18;1.60;;;;;;;20.76;100.00;100636.19;5021437;28;20053;-53
2023/08/12 07:07:58;;;;;;;10.00;1.75;;;;;;;20.89;100.00;100639.25;5016318;28;20025;-52
2023/08/12 07:10:24;;;;;;;9.65;1.52;;;;;;;20.92;100.00;100630.66;5017137;28;20036;-50
2023/08/12 07:12:49;;;;;;;14.40;1.60;;;;;;;21.15;100.00;100631.41;5020188;28;20033;-53
2023/08/12 07:15:14;;;;;;;8.43;2.72;;;;;;;21.13;100.00;100625.44;5019982;28;21690;-46
2023/08/12 07:17:40;;;;;;;17.90;2.15;;;;;;;21.17;100.00;100620.34;5021759;28;20033;-49
2023/08/12 07:20:06;;;;;;;11.23;1.80;;;;;;;21.28;100.00;100627.44;5018270;28;21330;-48
2023/08/12 07:22:32;;;;;;;6.53;2.13;;;;;;;21.22;100.00;100633.84;5023025;28;20045;-47
2023/08/12 07:24:59;;;;;;;4.50;1.17;;;;;;;21.44;100.00;100625.69;5019102;28;20039;-50
2023/08/12 07:27:25;;;;;;;8.63;1.80;;;;;;;21.28;100.00;100625.56;5020874;28;20036;-55
2023/08/12 07:29:51;;;;;;;9.52;2.17;;;;;;;21.60;100.00;100629.31;5023540;28;20029;-49
2023/08/12 07:32:16;;;;;;;7.95;1.25;;;;;;;21.72;100.00;100628.03;5019905;28;20037;-52
2023/08/12 07:34:41;;;;;;;10.48;1.30;;;;;;;21.61;100.00;100617.44;5022639;28;20259;-54
2023/08/12 07:37:07;;;;;;;11.88;1.20;;;;;;;21.60;100.00;100624.72;5016444;28;20033;-53
2023/08/12 07:39:32;;;;;;;10.98;1.50;;;;;;;21.71;100.00;100622.88;5019075;28;20040;-51
2023/08/12 07:41:57;;;;;;;16.38;2.70;;;;;;;21.95;100.00;100610.59;5019152;28;20490;-53
2023/08/12 07:44:22;;;;;;;7.32;1.33;;;;;;;22.38;100.00;100607.78;5017536;28;20518;-56
2023/08/12 07:46:49;;;;;;;6.95;1.45;;;;;;;22.44;100.00;100612.16;5018769;28;20490;-53
2023/08/12 07:49:15;;;;;;;6.57;1.58;;;;;;;22.35;100.00;100613.72;5014713;28;20052;-48
2023/08/12 07:51:40;;;;;;;15.77;2.28;;;;;;;22.26;100.00;100605.34;5013421;28;20104;-60
2023/08/12 07:54:06;;;;;;;6.38;1.63;;;;;;;22.19;100.00;100604.78;5014596;28;20487;-50
2023/08/12 07:56:31;;;;;;;5.28;1.20;;;;;;;22.19;100.00;100602.88;5013105;28;20044;-51
2023/08/12 07:58:57;;;;;;;9.75;2.03;;;;;;;22.37;100.00;100601.59;5016068;28;20077;-55
2023/08/12 08:01:22;;;;;;;10.38;2.08;;;;;;;22.28;100.00;100605.91;5012120;28;20046;-52
2023/08/12 08:03:47;;;;;;;7.47;1.38;;;;;;;22.30;100.00;100611.81;5019748;28;20033;-49
2023/08/12 08:06:13;;;;;;;8.18;1.17;;;;;;;22.17;100.00;100601.50;5013281;28;20029;-48
2023/08/12 08:08:38;;;;;;;6.20;1.70;;;;;;;22.25;100.00;100602.91;5017449;28;20061;-47
2023/08/12 08:11:03;;;;;;;10.77;1.80;;;;;;;22.23;100.00;100603.19;5018208;28;20036;-48
2023/08/12 08:13:29;;;;;;;9.52;1.33;;;;;;;22.14;100.00;100608.22;5015064;28;20506;-55
2023/08/12 08:15:55;;;;;;;6.43;1.92;;;;;;;22.34;100.00;100604.00;5023727;28;20029;-51
2023/08/12 08:18:20;;;;;;;8.18;1.30;;;;;;;22.26;100.00;100593.75;5014889;28;20037;-52
2023/08/12 08:20:45;;;;;;;11.82;1.85;;;;;;;22.52;100.00;100597.31;5014287;28;20022;-47
2023/08/12 08:23:11;;;;;;;9.23;1.90;;;;;;;22.50;100.00;100600.25;5014190;28;20029;-53
2023/08/12 08:25:36;;;;;;;10.88;2.33;;;;;;;22.48;100.00;100599.72;5005070;28;20059;-50
2023/08/12 08:28:03;;;;;;;8.73;2.38;;;;;;;22.43;100.00;100595.13;5020061;28;20482;-55
2023/08/12 08:30:29;;;;;;;16.80;2.25;;;;;;;22.59;100.00;100587.06;5004289;28;20471;-49
2023/08/12 08:32:54;;;;;;;9.15;1.30;;;;;;;22.56;100.00;100590.28;5018665;28;20033;-50
2023/08/12 08:35:19;;;;;;;9.43;1.50;;;;;;;22.58;100.00;100588.13;5018990;28;20067;-59
2023/08/12 08:37:45;;;;;;;8.18;1.20;;;;;;;22.67;100.00;100593.81;5019256;28;20041;-49
2023/08/12 08:40:10;;;;;;;15.75;1.55;;;;;;;22.86;100.00;100587.59;5010983;28;20063;-51
2023/08/12 08:42:37;;;;;;;9.65;1.58;;;;;;;23.12;100.00;100586.81;5014499;28;20048;-51
2023/08/12 08:45:06;;;;;;;6.85;1.85;;;;;;;23.25;100.00;100589.75;5015586;28;20037;-49
2023/08/12 08:47:32;;;;;;;10.63;1.75;;;;;;;23.43;100.00;100580.25;5009979;28;20042;-54
2023/08/12 08:49:59;;;;;;;6.28;0.77;;;;;;;23.45;100.00;100585.41;5011293;28;20049;-51
2023/08/12 08:52:24;;;;;;;10.23;1.75;;;;;;;23.60;100.00;100582.66;5013592;28;20041;-47
2023/08/12 08:54:50;;;;;;;6.40;1.42;;;;;;;23.61;100.00;100580.75;5017168;28;20505;-49
2023/08/12 08:57:16;;;;;;;4.18;0.73;;;;;;;23.90;100.00;100573.63;5014608;28;20112;-47
2023/08/12 08:59:42;;;;;;;8.82;1.98;;;;;;;23.96;100.00;100582.56;5017559;28;20059;-52
2023/08/12 09:02:15;;;;;;;5.03;1.13;;;;;;;23.83;100.00;100580.47;5018452;28;20503;-52
2023/08/12 09:04:41;;;;;;;7.15;1.13;;;;;;;23.84;100.00;100576.66;5011619;28;20029;-64
2023/08/12 09:07:07;;;;;;;5.60;1.08;;;;;;;23.80;100.00;100586.41;5011622;28;22084;-51
2023/08/12 09:09:33;;;;;;;9.25;1.80;;;;;;;23.43;100.00;100585.66;5020317;28;20029;-49
2023/08/12 09:11:59;;;;;;;4.93;0.77;;;;;;;23.39;100.00;100571.09;5021765;28;20026;-51
2023/08/12 09:14:24;;;;;;;8.82;2.15;;;;;;;23.49;100.00;100578.34;5024263;28;20087;-52
2023/08/12 09:16:50;;;;;;;6.03;1.25;;;;;;;23.57;100.00;100568.84;5015016;28;20028;-51
2023/08/12 09:19:15;;;;;;;8.25;1.65;;;;;;;23.71;100.00;100556.38;5011484;28;20060;-55
2023/08/12 09:21:42;;;;;;;5.75;1.52;;;;;;;23.43;100.00;100582.16;5011836;28;20030;-52
2023/08/12 09:24:08;;;;;;;7.43;1.00;;;;;;;23.39;100.00;100575.66;5012056;28;20445;-51
2023/08/12 09:26:33;;;;;;;8.10;1.33;;;;;;;23.24;100.00;100585.44;5016711;28;20386;-52
2023/08/12 09:29:00;;;;;;;5.65;0.77;;;;;;;22.89;100.00;100598.94;5015968;28;20033;-52
2023/08/12 09:31:27;;;;;;;10.95;1.67;;;;;;;22.71;100.00;100600.28;5016643;28;20389;-53
2023/08/12 09:33:54;;;;;;;6.72;1.50;;;;;;;22.84;100.00;100611.38;5012981;28;20040;-49
2023/08/12 09:36:22;;;;;;;7.35;1.10;;;;;;;22.60;100.00;100621.09;5023108;28;20061;-49
2023/08/12 09:38:47;;;;;;;5.70;0.60;;;;;;;22.72;100.00;100624.34;5018252;28;20170;-52
2023/08/12 09:41:12;;;;;;;4.25;0.95;;;;;;;22.69;100.00;100624.06;5000542;28;20083;-53
2023/08/12 09:43:44;;;;;;;5.10;0.63;;;;;;;22.74;100.00;100615.97;5015974;28;20095;-47
2023/08/12 09:46:16;;;;;;;5.22;0.63;;;;;;;22.64;100.00;100623.00;5015364;28;21303;-52
2023/08/12 09:48:41;;;;;;;1.52;0.35;;;;;;;22.30;100.00;100625.31;5020303;28;20099;-52
2023/08/12 09:51:07;;;;;;;9.25;0.70;;;;;;;22.28;100.00;100615.88;5017565;28;20041;-50
2023/08/12 09:53:33;;;;;;;4.35;0.68;;;;;;;22.33;100.00;100622.13;5019610;28;20041;-51
2023/08/12 09:56:06;;;;;;;6.60;0.93;;;;;;;22.34;100.00;100618.31;5023938;28;20029;-48
2023/08/12 09:58:33;;;;;;;2.72;0.68;;;;;;;22.42;100.00;100619.69;5017443;28;20053;-54
2023/08/12 10:00:59;;;;;;;8.57;1.33;;;;;;;22.50;100.00;100629.19;5017681;28;20029;-56
2023/08/12 10:03:25;;;;;;;8.90;1.20;;;;;;;22.18;100.00;100635.53;5017662;28;20410;-50
2023/08/12 10:05:52;;;;;;;7.32;1.52;;;;;;;22.27;100.00;100633.97;5025181;28;20033;-53
2023/08/12 10:08:18;;;;;;;6.18;0.75;;;;;;;22.08;100.00;100640.91;5016736;28;20432;-52
2023/08/12 10:10:44;;;;;;;3.95;0.73;;;;;;;21.83;100.00;100644.28;5014337;28;20386;-52
2023/08/12 10:13:10;;;;;;;4.85;0.90;;;;;;;21.90;100.00;100642.97;5017572;28;20022;-52
2023/08/12 10:15:36;;;;;;;5.28;2.25;;;;;;;22.00;100.00;100647.63;5016825;28;20084;-51
2023/08/12 10:18:03;;;;;;;4.28;1.15;;;;;;;22.29;100.00;100637.22;5020344;28;20646;-53
2023/08/12 10:20:31;;;;;;;8.88;0.95;;;;;;;22.62;100.00;100624.34;5010768;28;20037;-53
2023/08/12 10:22:57;;;;;;;6.00;1.17;;;;;;;23.04;100.00;100616.00;5008277;28;20045;-53
2023/08/12 10:25:26;;;;;;;8.95;1.77;;;;;;;23.42;100.00;100610.31;5018721;28;20564;-52
2023/08/12 10:27:51;;;;;;;9.35;2.58;;;;;;;23.76;100.00;100615.94;5021159;28;20057;-52
2023/08/12 10:30:16;;;;;;;7.05;1.08;;;;;;;23.73;100.00;100608.38;5018923;28;20057;-54
2023/08/12 10:32:43;;;;;;;8.43;2.13;;;;;;;23.90;100.00;100605.31;5020001;28;20076;-52
2023/08/12 10:35:08;;;;;;;7.75;1.75;;;;;;;24.10;100.00;100599.00;5009370;28;20048;-51
2023/08/12 10:37:34;;;;;;;6.63;2.40;;;;;;;24.08;100.00;100596.56;5015829;28;20037;-50
2023/08/12 10:40:20;;;;;;;6.53;1.20;;;;;;;24.15;100.00;100585.44;5023618;28;20029;-57
2023/08/12 10:42:47;;;;;;;4.80;1.05;;;;;;;24.08;100.00;100574.91;5012637;28;20395;-48
2023/08/12 10:45:15;;;;;;;7.82;1.98;;;;;;;23.75;100.00;100586.41;5017224;28;20060;-51
2023/08/12 10:47:48;;;;;;;7.97;0.75;;;;;;;23.72;100.00;100580.50;5018256;28;20095;-51
2023/08/12 10:50:21;;;;;;;6.30;1.20;;;;;;;23.89;100.00;100571.22;5014365;28;20727;-51
2023/08/12 10:52:50;;;;;;;6.80;0.85;;;;;;;24.10;100.00;100569.22;5005306;28;20525;-50
2023/08/12 10:55:23;;;;;;;10.55;2.05;;;;;;;23.77;100.00;100574.22;5017106;28;20128;-53
2023/08/12 10:57:49;;;;;;;8.60;1.25;;;;;;;23.57;100.00;100604.88;5011275;28;20052;-49
2023/08/12 11:00:17;;;;;;;12.52;1.95;;;;;;;22.74;100.00;100616.78;5013771;28;20224;-53
2023/08/12 11:02:48;;;;;;;5.28;2.05;;;;;;;22.32;100.00;100609.66;5018858;28;20081;-52
2023/08/12 11:05:14;;;;;;;6.15;1.52;;;;;;;22.06;100.00;100608.75;5018078;28;20041;-50
2023/08/12 11:07:44;;;;;;;2.13;0.40;;;;;;;22.34;100.00;100610.22;5014720;28;20441;-47
2023/08/12 11:10:17;;;;;;;7.65;1.65;;;;;;;22.74;100.00;100597.03;5010959;28;20436;-60
2023/08/12 11:12:56;;;;;;;6.03;0.82;;;;;;;22.95;100.00;100597.84;5012443;28;20025;-54